sensor_id;sensor_type;location;lat;lon;timestamp;pressure;altitude;pressure_sealevel;temperature;humidity
7888;BME280;3989;48.810;9.208;2022-12-18T00:00:40;100010.13;;;-10.21;100.00
7888;BME280;3989;48.810;9.208;2022-12-18T00:03:07;99959.59;;;-10.37;100.00
7888;BME280;3989;48.810;9.208;2022-12-18T00:05:34;99928.03;;;-10.59;100.00
7888;BME280;3989;48.810;9.208;2022-12-18T00:08:01;100017.53;;;-10.00;100.00
7888;BME280;3989;48.810;9.208;2022-12-18T00:10:28;99990.28;;;-10.18;100.00
7888;BME280;3989;48.810;9.208;2022-12-18T00:12:54;100011.72;;;-10.14;100.00
7888;BME280;3989;48.810;9.208;2022-12-18T00:15:21;100014.44;;;-10.23;100.00
7888;BME280;3989;48.810;9.208;2022-12-18T00:17:49;100020.59;;;-10.32;100.00
7888;BME280;3989;48.810;9.208;2022-12-18T00:20:15;100022.34;;;-10.35;100.00
7888;BME280;3989;48.810;9.208;2022-12-18T00:22:46;100024.09;;;-10.37;100.00
7888;BME280;3989;48.810;9.208;2022-12-18T00:25:13;99904.56;;;-11.03;100.00
7888;BME280;3989;48.810;9.208;2022-12-18T00:27:40;99989.00;;;-10.52;100.00
7888;BME280;3989;48.810;9.208;2022-12-18T00:30:07;99881.63;;;-11.25;100.00
7888;BME280;3989;48.810;9.208;2022-12-18T00:32:34;100016.41;;;-10.42;100.00
7888;BME280;3989;48.810;9.208;2022-12-18T00:35:02;100020.63;;;-10.35;100.00
7888;BME280;3989;48.810;9.208;2022-12-18T00:37:29;100019.69;;;-10.29;100.00
7888;BME280;3989;48.810;9.208;2022-12-18T00:39:55;99990.56;;;-10.37;100.00
7888;BME280;3989;48.810;9.208;2022-12-18T00:42:22;99942.41;;;-10.40;100.00
7888;BME280;3989;48.810;9.208;2022-12-18T00:45:06;100007.75;;;-9.80;100.00
7888;BME280;3989;48.810;9.208;2022-12-18T00:47:33;100013.66;;;-9.70;100.00
7888;BME280;3989;48.810;9.208;2022-12-18T00:50:01;100017.03;;;-9.67;100.00
7888;BME280;3989;48.810;9.208;2022-12-18T00:52:28;99995.72;;;-9.81;100.00
7888;BME280;3989;48.810;9.208;2022-12-18T00:54:55;100023.16;;;-9.74;100.00
7888;BME280;3989;48.810;9.208;2022-12-18T00:57:21;99988.06;;;-9.88;100.00
7888;BME280;3989;48.810;9.208;2022-12-18T00:59:50;99927.31;;;-10.09;100.00
7888;BME280;3989;48.810;9.208;2022-12-18T01:02:17;100009.19;;;-9.62;100.00
7888;BME280;3989;48.810;9.208;2022-12-18T01:04:43;100024.59;;;-9.56;100.00
7888;BME280;3989;48.810;9.208;2022-12-18T01:07:11;99997.22;;;-9.66;100.00
7888;BME280;3989;48.810;9.208;2022-12-18T01:09:37;100022.69;;;-9.45;100.00
7888;BME280;3989;48.810;9.208;2022-12-18T01:12:05;99902.38;;;-10.12;100.00
7888;BME280;3989;48.810;9.208;2022-12-18T01:14:32;99975.53;;;-9.57;100.00
7888;BME280;3989;48.810;9.208;2022-12-18T01:16:58;99944.16;;;-9.85;100.00
7888;BME280;3989;48.810;9.208;2022-12-18T01:19:27;99957.03;;;-9.84;100.00
7888;BME280;3989;48.810;9.208;2022-12-18T01:21:54;99906.75;;;-10.14;100.00
7888;BME280;3989;48.810;9.208;2022-12-18T01:24:22;99908.50;;;-10.16;100.00
7888;BME280;3989;48.810;9.208;2022-12-18T01:26:48;100033.00;;;-9.42;100.00
7888;BME280;3989;48.810;9.208;2022-12-18T01:29:15;100018.50;;;-9.50;100.00
7888;BME280;3989;48.810;9.208;2022-12-18T01:31:42;100040.69;;;-9.39;100.00
7888;BME280;3989;48.810;9.208;2022-12-18T01:34:08;100035.63;;;-9.45;100.00
7888;BME280;3989;48.810;9.208;2022-12-18T01:36:37;99957.22;;;-9.96;100.00
7888;BME280;3989;48.810;9.208;2022-12-18T01:39:05;100028.72;;;-9.44;100.00
7888;BME280;3989;48.810;9.208;2022-12-18T01:41:34;99968.94;;;-9.75;100.00
7888;BME280;3989;48.810;9.208;2022-12-18T01:47:39;100037.19;;;-9.36;100.00
7888;BME280;3989;48.810;9.208;2022-12-18T01:50:09;100038.16;;;-9.40;100.00
7888;BME280;3989;48.810;9.208;2022-12-18T01:52:38;100051.03;;;-9.37;100.00
7888;BME280;3989;48.810;9.208;2022-12-18T01:55:09;99950.34;;;-9.95;100.00
7888;BME280;3989;48.810;9.208;2022-12-18T01:57:38;100038.25;;;-9.48;100.00
7888;BME280;3989;48.810;9.208;2022-12-18T02:00:08;100016.00;;;-9.56;100.00
7888;BME280;3989;48.810;9.208;2022-12-18T02:02:35;99915.38;;;-10.15;100.00
7888;BME280;3989;48.810;9.208;2022-12-18T02:05:03;99992.88;;;-9.64;100.00
7888;BME280;3989;48.810;9.208;2022-12-18T02:07:37;100010.59;;;-9.41;100.00
7888;BME280;3989;48.810;9.208;2022-12-18T02:10:12;100013.94;;;-9.36;100.00
7888;BME280;3989;48.810;9.208;2022-12-18T02:12:48;100019.81;;;-9.27;100.00
7888;BME280;3989;48.810;9.208;2022-12-18T02:15:24;99946.53;;;-9.73;100.00
7888;BME280;3989;48.810;9.208;2022-12-18T02:17:56;100024.84;;;-9.18;100.00
7888;BME280;3989;48.810;9.208;2022-12-18T02:20:31;100029.97;;;-9.15;100.00
7888;BME280;3989;48.810;9.208;2022-12-18T02:23:06;100030.78;;;-9.14;100.00
7888;BME280;3989;48.810;9.208;2022-12-18T02:25:54;100008.41;;;-9.15;100.00
7888;BME280;3989;48.810;9.208;2022-12-18T02:28:29;99990.44;;;-9.23;100.00
7888;BME280;3989;48.810;9.208;2022-12-18T02:30:59;100035.66;;;-8.96;100.00
7888;BME280;3989;48.810;9.208;2022-12-18T02:33:28;100018.50;;;-9.01;100.00
7888;BME280;3989;48.810;9.208;2022-12-18T02:35:57;99985.31;;;-9.24;100.00
7888;BME280;3989;48.810;9.208;2022-12-18T02:38:24;100032.94;;;-8.88;100.00
7888;BME280;3989;48.810;9.208;2022-12-18T02:40:54;100036.28;;;-8.83;100.00
7888;BME280;3989;48.810;9.208;2022-12-18T02:43:21;99982.66;;;-9.21;100.00
7888;BME280;3989;48.810;9.208;2022-12-18T02:45:50;100039.78;;;-8.87;100.00
7888;BME280;3989;48.810;9.208;2022-12-18T02:48:17;100043.28;;;-8.90;100.00
7888;BME280;3989;48.810;9.208;2022-12-18T02:50:51;100005.03;;;-9.19;100.00
7888;BME280;3989;48.810;9.208;2022-12-18T02:53:24;100053.69;;;-8.93;100.00
7888;BME280;3989;48.810;9.208;2022-12-18T02:56:01;100002.56;;;-9.26;100.00
7888;BME280;3989;48.810;9.208;2022-12-18T02:58:35;100044.28;;;-8.97;100.00
7888;BME280;3989;48.810;9.208;2022-12-18T03:01:11;100046.75;;;-8.89;100.00
7888;BME280;3989;48.810;9.208;2022-12-18T03:03:42;100051.06;;;-8.91;100.00
7888;BME280;3989;48.810;9.208;2022-12-18T03:06:15;100049.38;;;-8.94;100.00
7888;BME280;3989;48.810;9.208;2022-12-18T03:08:48;100032.19;;;-8.96;100.00
7888;BME280;3989;48.810;9.208;2022-12-18T03:11:18;99983.75;;;-9.34;100.00
7888;BME280;3989;48.810;9.208;2022-12-18T03:14:06;100067.53;;;-8.95;100.00
7888;BME280;3989;48.810;9.208;2022-12-18T03:16:34;100052.03;;;-8.97;100.00
7888;BME280;3989;48.810;9.208;2022-12-18T03:19:05;100052.13;;;-9.01;100.00
7888;BME280;3989;48.810;9.208;2022-12-18T03:21:36;100051.34;;;-9.05;100.00
7888;BME280;3989;48.810;9.208;2022-12-18T03:24:06;100061.75;;;-9.10;100.00
7888;BME280;3989;48.810;9.208;2022-12-18T03:26:37;100062.72;;;-9.17;100.00
7888;BME280;3989;48.810;9.208;2022-12-18T03:29:09;100055.97;;;-9.25;100.00
7888;BME280;3989;48.810;9.208;2022-12-18T03:31:40;100033.09;;;-9.49;100.00
7888;BME280;3989;48.810;9.208;2022-12-18T03:34:12;100073.44;;;-9.39;100.00
7888;BME280;3989;48.810;9.208;2022-12-18T03:36:41;100032.59;;;-9.70;100.00
7888;BME280;3989;48.810;9.208;2022-12-18T03:39:07;100064.22;;;-9.54;100.00
7888;BME280;3989;48.810;9.208;2022-12-18T03:41:42;100068.53;;;-9.56;100.00
7888;BME280;3989;48.810;9.208;2022-12-18T03:44:14;100068.63;;;-9.61;100.00
7888;BME280;3989;48.810;9.208;2022-12-18T03:46:49;100051.53;;;-9.69;100.00
7888;BME280;3989;48.810;9.208;2022-12-18T03:49:23;100054.00;;;-9.63;100.00
7888;BME280;3989;48.810;9.208;2022-12-18T03:51:57;100063.41;;;-9.59;100.00
7888;BME280;3989;48.810;9.208;2022-12-18T03:54:27;100057.47;;;-9.66;100.00
7888;BME280;3989;48.810;9.208;2022-12-18T03:56:59;99997.66;;;-9.95;100.00
7888;BME280;3989;48.810;9.208;2022-12-18T03:59:27;100062.59;;;-9.61;100.00
7888;BME280;3989;48.810;9.208;2022-12-18T04:01:56;100025.81;;;-9.78;100.00
7888;BME280;3989;48.810;9.208;2022-12-18T04:04:25;100059.03;;;-9.55;100.00
7888;BME280;3989;48.810;9.208;2022-12-18T04:06:54;100018.88;;;-9.75;100.00
7888;BME280;3989;48.810;9.208;2022-12-18T04:09:22;100061.66;;;-9.57;100.00
7888;BME280;3989;48.810;9.208;2022-12-18T04:11:49;99915.81;;;-10.46;100.00
7888;BME280;3989;48.810;9.208;2022-12-18T04:14:19;100056.59;;;-9.63;100.00
7888;BME280;3989;48.810;9.208;2022-12-18T04:16:46;100053.19;;;-9.67;100.00
7888;BME280;3989;48.810;9.208;2022-12-18T04:19:13;100021.50;;;-9.76;100.00
7888;BME280;3989;48.810;9.208;2022-12-18T04:21:39;100055.69;;;-9.61;100.00
7888;BME280;3989;48.810;9.208;2022-12-18T04:24:06;100057.38;;;-9.58;100.00
7888;BME280;3989;48.810;9.208;2022-12-18T04:26:33;100032.69;;;-9.79;100.00
7888;BME280;3989;48.810;9.208;2022-12-18T04:29:00;100014.91;;;-9.95;100.00
7888;BME280;3989;48.810;9.208;2022-12-18T04:31:28;100072.25;;;-9.75;100.00
7888;BME280;3989;48.810;9.208;2022-12-18T04:33:54;100077.50;;;-9.80;100.00
7888;BME280;3989;48.810;9.208;2022-12-18T04:36:21;100075.88;;;-9.87;100.00
7888;BME280;3989;48.810;9.208;2022-12-18T04:38:47;100058.84;;;-10.00;100.00
7888;BME280;3989;48.810;9.208;2022-12-18T04:41:14;100074.94;;;-9.80;100.00
7888;BME280;3989;48.810;9.208;2022-12-18T04:43:41;99999.59;;;-10.09;100.00
7888;BME280;3989;48.810;9.208;2022-12-18T04:46:08;100075.56;;;-9.64;100.00
7888;BME280;3989;48.810;9.208;2022-12-18T04:48:36;100060.97;;;-9.67;100.00
7888;BME280;3989;48.810;9.208;2022-12-18T04:51:03;100043.84;;;-9.75;100.00
7888;BME280;3989;48.810;9.208;2022-12-18T04:53:30;100050.63;;;-9.67;100.00
7888;BME280;3989;48.810;9.208;2022-12-18T04:56:05;100048.91;;;-9.66;100.00
7888;BME280;3989;48.810;9.208;2022-12-18T04:58:32;100032.75;;;-9.80;100.00
7888;BME280;3989;48.810;9.208;2022-12-18T05:00:59;100021.75;;;-9.94;100.00
7888;BME280;3989;48.810;9.208;2022-12-18T05:03:25;100045.66;;;-9.80;100.00
7888;BME280;3989;48.810;9.208;2022-12-18T05:05:53;99977.50;;;-10.27;100.00
7888;BME280;3989;48.810;9.208;2022-12-18T05:08:20;100076.69;;;-9.83;100.00
7888;BME280;3989;48.810;9.208;2022-12-18T05:10:46;99984.41;;;-10.30;100.00
7888;BME280;3989;48.810;9.208;2022-12-18T05:13:13;99996.47;;;-10.29;100.00
7888;BME280;3989;48.810;9.208;2022-12-18T05:15:40;99956.44;;;-10.59;100.00
7888;BME280;3989;48.810;9.208;2022-12-18T05:18:07;100067.34;;;-9.92;100.00
7888;BME280;3989;48.810;9.208;2022-12-18T05:20:34;100058.75;;;-9.92;100.00
7888;BME280;3989;48.810;9.208;2022-12-18T05:23:01;100034.06;;;-10.12;100.00
7888;BME280;3989;48.810;9.208;2022-12-18T05:25:28;100023.22;;;-10.36;100.00
7888;BME280;3989;48.810;9.208;2022-12-18T05:27:57;100087.16;;;-9.94;100.00
7888;BME280;3989;48.810;9.208;2022-12-18T05:30:23;100085.44;;;-9.95;100.00
7888;BME280;3989;48.810;9.208;2022-12-18T05:32:50;100058.22;;;-10.17;100.00
7888;BME280;3989;48.810;9.208;2022-12-18T05:35:17;100083.03;;;-10.07;100.00
7888;BME280;3989;48.810;9.208;2022-12-18T05:37:43;100054.06;;;-10.24;100.00
7888;BME280;3989;48.810;9.208;2022-12-18T05:40:12;100034.59;;;-10.52;100.00
7888;BME280;3989;48.810;9.208;2022-12-18T05:42:39;100103.84;;;-10.16;100.00
7888;BME280;3989;48.810;9.208;2022-12-18T05:45:06;100102.16;;;-10.20;100.00
7888;BME280;3989;48.810;9.208;2022-12-18T05:47:32;100091.84;;;-10.20;100.00
7888;BME280;3989;48.810;9.208;2022-12-18T05:49:59;100080.06;;;-10.42;100.00
7888;BME280;3989;48.810;9.208;2022-12-18T05:52:26;99967.38;;;-11.10;100.00
7888;BME280;3989;48.810;9.208;2022-12-18T05:54:52;100094.56;;;-10.32;100.00
7888;BME280;3989;48.810;9.208;2022-12-18T05:57:20;100058.63;;;-10.49;100.00
7888;BME280;3989;48.810;9.208;2022-12-18T05:59:47;100000.59;;;-10.83;100.00
7888;BME280;3989;48.810;9.208;2022-12-18T06:02:13;100054.44;;;-10.57;100.00
7888;BME280;3989;48.810;9.208;2022-12-18T06:04:40;100016.09;;;-10.86;100.00
7888;BME280;3989;48.810;9.208;2022-12-18T06:07:06;99993.94;;;-11.02;100.00
7888;BME280;3989;48.810;9.208;2022-12-18T06:09:33;100075.94;;;-10.57;100.00
7888;BME280;3989;48.810;9.208;2022-12-18T06:11:59;100083.63;;;-10.52;100.00
7888;BME280;3989;48.810;9.208;2022-12-18T06:14:28;100000.00;;;-11.09;100.00
7888;BME280;3989;48.810;9.208;2022-12-18T06:16:54;100093.13;;;-10.54;100.00
7888;BME280;3989;48.810;9.208;2022-12-18T06:19:21;100054.81;;;-10.89;100.00
7888;BME280;3989;48.810;9.208;2022-12-18T06:21:47;100061.69;;;-10.91;100.00
7888;BME280;3989;48.810;9.208;2022-12-18T06:24:15;99952.38;;;-11.56;100.00
7888;BME280;3989;48.810;9.208;2022-12-18T06:26:42;100096.69;;;-10.66;100.00
7888;BME280;3989;48.810;9.208;2022-12-18T06:29:08;100001.91;;;-11.30;100.00
7888;BME280;3989;48.810;9.208;2022-12-18T06:31:36;100039.44;;;-11.00;100.00
7888;BME280;3989;48.810;9.208;2022-12-18T06:34:04;100101.00;;;-10.67;100.00
7888;BME280;3989;48.810;9.208;2022-12-18T06:36:30;100109.59;;;-10.68;100.00
7888;BME280;3989;48.810;9.208;2022-12-18T06:38:57;100113.06;;;-10.70;100.00
7888;BME280;3989;48.810;9.208;2022-12-18T06:41:24;100084.03;;;-10.92;100.00
7888;BME280;3989;48.810;9.208;2022-12-18T06:43:50;100120.00;;;-10.77;100.00
7888;BME280;3989;48.810;9.208;2022-12-18T06:46:17;100132.03;;;-10.79;100.00
7888;BME280;3989;48.810;9.208;2022-12-18T06:48:48;100073.84;;;-11.04;100.00
7888;BME280;3989;48.810;9.208;2022-12-18T06:51:19;100111.44;;;-10.80;100.00
7888;BME280;3989;48.810;9.208;2022-12-18T06:53:46;100086.66;;;-10.96;100.00
7888;BME280;3989;48.810;9.208;2022-12-18T06:56:12;100112.31;;;-10.84;100.00
7888;BME280;3989;48.810;9.208;2022-12-18T06:58:40;100114.09;;;-10.91;100.00
7888;BME280;3989;48.810;9.208;2022-12-18T07:01:08;100116.72;;;-10.92;100.00
7888;BME280;3989;48.810;9.208;2022-12-18T07:03:35;100024.50;;;-11.57;100.00
7888;BME280;3989;48.810;9.208;2022-12-18T07:06:04;100046.75;;;-11.47;100.00
7888;BME280;3989;48.810;9.208;2022-12-18T07:08:31;100127.16;;;-11.06;100.00
7888;BME280;3989;48.810;9.208;2022-12-18T07:10:58;100052.72;;;-11.42;100.00
7888;BME280;3989;48.810;9.208;2022-12-18T07:13:25;100134.81;;;-11.01;100.00
7888;BME280;3989;48.810;9.208;2022-12-18T07:15:51;100140.75;;;-10.89;100.00
7888;BME280;3989;48.810;9.208;2022-12-18T07:18:18;100127.09;;;-10.98;100.00
7888;BME280;3989;48.810;9.208;2022-12-18T07:20:45;100059.47;;;-11.28;100.00
7888;BME280;3989;48.810;9.208;2022-12-18T07:23:13;100153.47;;;-10.72;100.00
7888;BME280;3989;48.810;9.208;2022-12-18T07:25:39;100143.97;;;-10.67;100.00
7888;BME280;3989;48.810;9.208;2022-12-18T07:28:06;100089.22;;;-10.95;100.00
7888;BME280;3989;48.810;9.208;2022-12-18T07:30:33;100039.66;;;-11.23;100.00
7888;BME280;3989;48.810;9.208;2022-12-18T07:32:59;100123.34;;;-10.69;100.00
7888;BME280;3989;48.810;9.208;2022-12-18T07:35:26;100150.72;;;-10.54;100.00
7888;BME280;3989;48.810;9.208;2022-12-18T07:37:52;100161.09;;;-10.58;100.00
7888;BME280;3989;48.810;9.208;2022-12-18T07:40:20;100158.47;;;-10.55;100.00
7888;BME280;3989;48.810;9.208;2022-12-18T07:42:47;100137.13;;;-10.70;100.00
7888;BME280;3989;48.810;9.208;2022-12-18T07:45:14;100141.44;;;-10.70;100.00
7888;BME280;3989;48.810;9.208;2022-12-18T07:47:40;100172.16;;;-10.49;100.00
7888;BME280;3989;48.810;9.208;2022-12-18T07:50:07;100127.69;;;-10.72;100.00
7888;BME280;3989;48.810;9.208;2022-12-18T07:52:34;100153.31;;;-10.55;100.00
7888;BME280;3989;48.810;9.208;2022-12-18T07:55:01;100136.06;;;-10.50;100.00
7888;BME280;3989;48.810;9.208;2022-12-18T07:57:29;100048.88;;;-11.00;100.00
7888;BME280;3989;48.810;9.208;2022-12-18T07:59:56;100107.88;;;-10.67;100.00
7888;BME280;3989;48.810;9.208;2022-12-18T08:02:22;100040.28;;;-11.01;100.00
7888;BME280;3989;48.810;9.208;2022-12-18T08:04:51;99985.47;;;-11.16;100.00
7888;BME280;3989;48.810;9.208;2022-12-18T08:07:17;100044.31;;;-10.73;100.00
7888;BME280;3989;48.810;9.208;2022-12-18T08:09:44;100118.59;;;-10.24;100.00
7888;BME280;3989;48.810;9.208;2022-12-18T08:12:14;100139.72;;;-9.98;100.00
7888;BME280;3989;48.810;9.208;2022-12-18T08:14:42;100043.19;;;-10.50;100.00
7888;BME280;3989;48.810;9.208;2022-12-18T08:17:09;100156.69;;;-9.79;100.00
7888;BME280;3989;48.810;9.208;2022-12-18T08:19:35;100094.19;;;-10.03;100.00
7888;BME280;3989;48.810;9.208;2022-12-18T08:22:02;100018.16;;;-10.44;100.00
7888;BME280;3989;48.810;9.208;2022-12-18T08:24:28;100153.78;;;-9.53;100.00
7888;BME280;3989;48.810;9.208;2022-12-18T08:26:55;100107.59;;;-9.79;100.00
7888;BME280;3989;48.810;9.208;2022-12-18T08:29:22;100163.09;;;-9.41;100.00
7888;BME280;3989;48.810;9.208;2022-12-18T08:31:50;100069.09;;;-9.92;100.00
7888;BME280;3989;48.810;9.208;2022-12-18T08:34:19;100156.88;;;-9.30;100.00
7888;BME280;3989;48.810;9.208;2022-12-18T08:36:46;100161.94;;;-9.21;100.00
7888;BME280;3989;48.810;9.208;2022-12-18T08:39:13;100127.72;;;-9.38;100.00
7888;BME280;3989;48.810;9.208;2022-12-18T08:41:39;100035.38;;;-9.85;100.00
7888;BME280;3989;48.810;9.208;2022-12-18T08:44:09;100124.97;;;-9.29;100.00
7888;BME280;3989;48.810;9.208;2022-12-18T08:46:58;100113.63;;;-9.19;100.00
7888;BME280;3989;48.810;9.208;2022-12-18T08:49:25;100060.00;;;-9.61;100.00
7888;BME280;3989;48.810;9.208;2022-12-18T08:51:54;100162.22;;;-8.85;100.00
7888;BME280;3989;48.810;9.208;2022-12-18T08:54:22;100082.63;;;-9.22;100.00
7888;BME280;3989;48.810;9.208;2022-12-18T08:56:49;100104.50;;;-8.90;100.00
7888;BME280;3989;48.810;9.208;2022-12-18T08:59:16;100145.16;;;-8.48;100.00
7888;BME280;3989;48.810;9.208;2022-12-18T09:01:43;100146.66;;;-8.35;100.00
7888;BME280;3989;48.810;9.208;2022-12-18T09:04:11;100121.63;;;-8.34;100.00
7888;BME280;3989;48.810;9.208;2022-12-18T09:06:39;100069.22;;;-8.47;100.00
7888;BME280;3989;48.810;9.208;2022-12-18T09:09:06;100108.19;;;-8.13;100.00
7888;BME280;3989;48.810;9.208;2022-12-18T09:11:33;100063.72;;;-8.32;100.00
7888;BME280;3989;48.810;9.208;2022-12-18T09:14:02;100042.44;;;-8.46;100.00
7888;BME280;3989;48.810;9.208;2022-12-18T09:16:36;100136.75;;;-7.73;100.00
7888;BME280;3989;48.810;9.208;2022-12-18T09:19:05;100137.31;;;-7.61;100.00
7888;BME280;3989;48.810;9.208;2022-12-18T09:21:48;100140.50;;;-7.48;100.00
7888;BME280;3989;48.810;9.208;2022-12-18T09:24:15;100116.44;;;-7.53;100.00
7888;BME280;3989;48.810;9.208;2022-12-18T09:26:42;100005.31;;;-8.07;100.00
7888;BME280;3989;48.810;9.208;2022-12-18T09:29:09;100030.78;;;-7.87;100.00
7888;BME280;3989;48.810;9.208;2022-12-18T09:31:50;100120.75;;;-7.17;100.00
7888;BME280;3989;48.810;9.208;2022-12-18T09:34:16;99988.41;;;-7.84;100.00
7888;BME280;3989;48.810;9.208;2022-12-18T09:36:46;100063.97;;;-7.27;100.00
7888;BME280;3989;48.810;9.208;2022-12-18T09:39:17;100117.44;;;-6.88;100.00
7888;BME280;3989;48.810;9.208;2022-12-18T09:41:46;100051.53;;;-7.15;100.00
7888;BME280;3989;48.810;9.208;2022-12-18T09:47:15;100110.25;;;-6.77;100.00
7888;BME280;3989;48.810;9.208;2022-12-18T09:49:45;100042.03;;;-7.14;100.00
7888;BME280;3989;48.810;9.208;2022-12-18T09:52:17;100074.16;;;-6.86;100.00
7888;BME280;3989;48.810;9.208;2022-12-18T09:54:59;100095.19;;;-6.63;100.00
7888;BME280;3989;48.810;9.208;2022-12-18T09:57:29;100097.88;;;-6.67;100.00
7888;BME280;3989;48.810;9.208;2022-12-18T10:00:02;100031.16;;;-6.96;100.00
7888;BME280;3989;48.810;9.208;2022-12-18T10:02:30;100103.50;;;-6.50;100.00
7888;BME280;3989;48.810;9.208;2022-12-18T10:05:04;100101.53;;;-6.42;100.00
7888;BME280;3989;48.810;9.208;2022-12-18T10:07:42;100066.28;;;-6.51;100.00
7888;BME280;3989;48.810;9.208;2022-12-18T10:10:21;100100.03;;;-6.18;100.00
7888;BME280;3989;48.810;9.208;2022-12-18T10:12:56;100103.25;;;-6.10;100.00
7888;BME280;3989;48.810;9.208;2022-12-18T10:15:31;100020.31;;;-6.47;100.00
7888;BME280;3989;48.810;9.208;2022-12-18T10:18:14;100095.06;;;-5.97;100.00
7888;BME280;3989;48.810;9.208;2022-12-18T10:20:47;100080.38;;;-5.98;100.00
7888;BME280;3989;48.810;9.208;2022-12-18T10:23:19;100121.97;;;-5.70;100.00
7888;BME280;3989;48.810;9.208;2022-12-18T10:25:54;100114.00;;;-5.64;100.00
7888;BME280;3989;48.810;9.208;2022-12-18T10:28:22;100112.75;;;-5.52;100.00
7888;BME280;3989;48.810;9.208;2022-12-18T10:30:49;100116.66;;;-5.38;100.00
7888;BME280;3989;48.810;9.208;2022-12-18T10:33:18;100105.94;;;-5.28;100.00
7888;BME280;3989;48.810;9.208;2022-12-18T10:35:47;100029.88;;;-5.63;100.00
7888;BME280;3989;48.810;9.208;2022-12-18T10:38:23;100039.78;;;-5.48;100.00
7888;BME280;3989;48.810;9.208;2022-12-18T10:40:54;100112.25;;;-5.08;100.00
7888;BME280;3989;48.810;9.208;2022-12-18T10:43:23;100113.69;;;-4.99;100.00
7888;BME280;3989;48.810;9.208;2022-12-18T10:46:11;100103.13;;;-4.95;100.00
7888;BME280;3989;48.810;9.208;2022-12-18T10:48:48;100089.28;;;-4.97;100.00
7888;BME280;3989;48.810;9.208;2022-12-18T10:51:21;100100.81;;;-4.78;100.00
7888;BME280;3989;48.810;9.208;2022-12-18T10:53:53;100061.28;;;-4.89;100.00
7888;BME280;3989;48.810;9.208;2022-12-18T10:56:23;100105.34;;;-4.58;100.00
7888;BME280;3989;48.810;9.208;2022-12-18T10:58:56;100101.41;;;-4.45;100.00
7888;BME280;3989;48.810;9.208;2022-12-18T11:01:23;100107.16;;;-4.35;100.00
7888;BME280;3989;48.810;9.208;2022-12-18T11:03:59;100098.06;;;-4.23;100.00
7888;BME280;3989;48.810;9.208;2022-12-18T11:06:26;100072.75;;;-4.20;100.00
7888;BME280;3989;48.810;9.208;2022-12-18T11:08:58;100027.06;;;-4.30;100.00
7888;BME280;3989;48.810;9.208;2022-12-18T11:11:28;99990.13;;;-4.41;100.00
7888;BME280;3989;48.810;9.208;2022-12-18T11:13:59;100065.72;;;-3.72;100.00
7888;BME280;3989;48.810;9.208;2022-12-18T11:16:28;100081.38;;;-3.50;100.00
7888;BME280;3989;48.810;9.208;2022-12-18T11:19:14;100035.22;;;-3.71;100.00
7888;BME280;3989;48.810;9.208;2022-12-18T11:21:46;100073.19;;;-3.41;100.00
7888;BME280;3989;48.810;9.208;2022-12-18T11:24:20;100057.53;;;-3.41;100.00
7888;BME280;3989;48.810;9.208;2022-12-18T11:26:49;100060.91;;;-3.39;100.00
7888;BME280;3989;48.810;9.208;2022-12-18T11:29:17;100058.97;;;-3.34;100.00
7888;BME280;3989;48.810;9.208;2022-12-18T11:31:44;100054.75;;;-3.36;100.00
7888;BME280;3989;48.810;9.208;2022-12-18T11:34:13;99981.53;;;-3.77;100.00
7888;BME280;3989;48.810;9.208;2022-12-18T11:36:45;100046.09;;;-3.38;100.00
7888;BME280;3989;48.810;9.208;2022-12-18T11:39:17;99963.66;;;-3.86;100.00
7888;BME280;3989;48.810;9.208;2022-12-18T11:41:52;99999.50;;;-3.69;100.00
7888;BME280;3989;48.810;9.208;2022-12-18T11:44:43;100000.25;;;-3.65;100.00
7888;BME280;3989;48.810;9.208;2022-12-18T11:47:19;99915.91;;;-4.09;100.00
7888;BME280;3989;48.810;9.208;2022-12-18T11:49:49;99933.50;;;-3.93;100.00
7888;BME280;3989;48.810;9.208;2022-12-18T11:52:19;100020.22;;;-3.23;100.00
7888;BME280;3989;48.810;9.208;2022-12-18T11:54:51;99909.28;;;-3.75;100.00
7888;BME280;3989;48.810;9.208;2022-12-18T11:57:27;99867.66;;;-3.98;100.00
7888;BME280;3989;48.810;9.208;2022-12-18T12:00:03;100034.69;;;-2.94;100.00
7888;BME280;3989;48.810;9.208;2022-12-18T12:02:46;100033.66;;;-2.90;100.00
7888;BME280;3989;48.810;9.208;2022-12-18T12:05:25;99973.09;;;-3.20;100.00
7888;BME280;3989;48.810;9.208;2022-12-18T12:08:00;99965.13;;;-3.17;100.00
7888;BME280;3989;48.810;9.208;2022-12-18T12:10:42;99966.31;;;-3.03;100.00
7888;BME280;3989;48.810;9.208;2022-12-18T12:13:23;99909.47;;;-3.37;100.00
7888;BME280;3989;48.810;9.208;2022-12-18T12:16:02;100004.53;;;-2.81;100.00
7888;BME280;3989;48.810;9.208;2022-12-18T12:18:42;99984.56;;;-2.82;100.00
7888;BME280;3989;48.810;9.208;2022-12-18T12:21:17;99996.69;;;-2.81;100.00
7888;BME280;3989;48.810;9.208;2022-12-18T12:23:52;100003.75;;;-2.62;100.00
7888;BME280;3989;48.810;9.208;2022-12-18T12:26:26;100023.97;;;-2.47;100.00
7888;BME280;3989;48.810;9.208;2022-12-18T12:29:10;100004.34;;;-2.37;100.00
7888;BME280;3989;48.810;9.208;2022-12-18T12:31:58;99894.72;;;-2.98;100.00
7888;BME280;3989;48.810;9.208;2022-12-18T12:34:34;99895.66;;;-3.00;100.00
7888;BME280;3989;48.810;9.208;2022-12-18T12:37:15;100003.31;;;-2.33;100.00
7888;BME280;3989;48.810;9.208;2022-12-18T12:39:46;99913.59;;;-2.73;100.00
7888;BME280;3989;48.810;9.208;2022-12-18T12:42:18;99856.38;;;-2.97;100.00
7888;BME280;3989;48.810;9.208;2022-12-18T12:45:07;99963.16;;;-2.32;100.00
7888;BME280;3989;48.810;9.208;2022-12-18T12:47:51;99897.75;;;-2.49;100.00
7888;BME280;3989;48.810;9.208;2022-12-18T12:50:20;99957.53;;;-2.04;100.00
7888;BME280;3989;48.810;9.208;2022-12-18T12:52:52;100008.34;;;-1.73;100.00
7888;BME280;3989;48.810;9.208;2022-12-18T12:55:21;99853.84;;;-2.61;100.00
7888;BME280;3989;48.810;9.208;2022-12-18T12:57:56;99920.53;;;-2.16;100.00
7888;BME280;3989;48.810;9.208;2022-12-18T13:00:29;99926.00;;;-2.20;100.00
7888;BME280;3989;48.810;9.208;2022-12-18T13:03:03;99991.16;;;-1.78;100.00
7888;BME280;3989;48.810;9.208;2022-12-18T13:05:39;100019.44;;;-1.49;100.00
7888;BME280;3989;48.810;9.208;2022-12-18T13:08:10;100016.56;;;-1.44;100.00
7888;BME280;3989;48.810;9.208;2022-12-18T13:10:37;99998.84;;;-1.56;100.00
7888;BME280;3989;48.810;9.208;2022-12-18T13:13:05;99974.22;;;-1.71;100.00
7888;BME280;3989;48.810;9.208;2022-12-18T13:15:38;100023.34;;;-1.40;100.00
7888;BME280;3989;48.810;9.208;2022-12-18T13:18:17;100017.66;;;-1.31;100.00
7888;BME280;3989;48.810;9.208;2022-12-18T13:20:45;100014.38;;;-1.18;100.00